Time;durP1;ratioP1;P1;durP2;ratioP2;P2;SDS_P1;SDS_P2;PMS_P1;PMS_P2;Temp;Humidity;BMP_temperature;BMP_pressure;BME280_temperature;BME280_humidity;BME280_pressure;Samples;Min_cycle;Max_cycle;Signal;HPM_P1;HPM_P2
2023/09/23 00:00:50;;;;;;;0.77;0.50;;;;;;;;;;4975078;28;20031;-58
2023/09/23 00:03:16;;;;;;;2.00;0.50;;;;;;;;;;4969565;28;20035;-58
2023/09/23 00:05:43;;;;;;;1.60;0.75;;;;;;;;;;4975823;28;20026;-59
2023/09/23 00:08:10;;;;;;;2.60;0.67;;;;;;;;;;4989081;28;20358;-58
2023/09/23 00:10:38;;;;;;;1.97;0.63;;;;;;;;;;4988844;28;20026;-58
2023/09/23 00:13:05;;;;;;;1.07;0.70;;;;;;;;;;4993647;28;20401;-58
2023/09/23 00:15:36;;;;;;;0.73;0.50;;;;;;;;;;4990130;28;20035;-58
2023/09/23 00:18:04;;;;;;;1.47;0.77;;;;;;;;;;4974978;28;20374;-58
2023/09/23 00:20:32;;;;;;;1.73;0.87;;;;;;;;;;4979097;28;20049;-58
2023/09/23 00:22:59;;;;;;;0.53;0.53;;;;;;;;;;4994118;28;20466;-58
2023/09/23 00:25:26;;;;;;;0.70;0.60;;;;;;;;;;4989266;28;20478;-58
2023/09/23 00:27:55;;;;;;;0.43;0.37;;;;;;;;;;4988677;28;20385;-58
2023/09/23 00:30:26;;;;;;;1.50;0.67;;;;;;;;;;4985698;28;20457;-58
2023/09/23 00:32:53;;;;;;;0.50;0.50;;;;;;;;;;4969313;28;20038;-58
2023/09/23 00:35:20;;;;;;;0.60;0.50;;;;;;;;;;4973326;28;20379;-58
2023/09/23 00:37:48;;;;;;;10.20;0.90;;;;;;;;;;4974489;28;20038;-58
2023/09/23 00:40:24;;;;;;;1.73;0.63;;;;;;;;;;4975467;28;20046;-58
2023/09/23 00:42:51;;;;;;;1.53;0.73;;;;;;;;;;4993650;28;20444;-58
2023/09/23 00:45:19;;;;;;;0.27;0.27;;;;;;;;;;4994027;28;20439;-58
2023/09/23 00:47:46;;;;;;;0.63;0.50;;;;;;;;;;4989334;28;20306;-58
2023/09/23 00:50:19;;;;;;;3.33;0.57;;;;;;;;;;4987434;28;20029;-58
2023/09/23 00:52:51;;;;;;;0.60;0.50;;;;;;;;;;4969065;28;20550;-58
2023/09/23 00:55:19;;;;;;;0.77;0.50;;;;;;;;;;4968856;28;20051;-58
2023/09/23 00:57:53;;;;;;;0.87;0.50;;;;;;;;;;4973025;28;20027;-58
2023/09/23 01:00:25;;;;;;;1.07;0.43;;;;;;;;;;4975174;28;20062;-58
2023/09/23 01:02:55;;;;;;;3.40;1.20;;;;;;;;;;4976325;28;20046;-58
2023/09/23 01:05:26;;;;;;;1.07;0.60;;;;;;;;;;4992705;28;20031;-58
2023/09/23 01:07:55;;;;;;;0.40;0.37;;;;;;;;;;4993646;28;20128;-58
2023/09/23 01:10:21;;;;;;;1.20;0.60;;;;;;;;;;4988778;28;20034;-58
2023/09/23 01:12:48;;;;;;;1.77;0.73;;;;;;;;;;4985264;28;20027;-57
2023/09/23 01:15:18;;;;;;;0.93;0.70;;;;;;;;;;4972316;28;20473;-58
2023/09/23 01:17:47;;;;;;;0.60;0.50;;;;;;;;;;4988269;28;20433;-57
2023/09/23 01:20:16;;;;;;;1.07;0.60;;;;;;;;;;4991945;28;20038;-58
2023/09/23 01:22:44;;;;;;;2.77;0.77;;;;;;;;;;4992950;28;20505;-58
2023/09/23 01:25:11;;;;;;;0.83;0.60;;;;;;;;;;4990287;28;20034;-59
2023/09/23 01:27:37;;;;;;;1.33;0.77;;;;;;;;;;4973717;28;20022;-57
2023/09/23 01:30:04;;;;;;;1.27;0.80;;;;;;;;;;4973567;28;20050;-57
2023/09/23 01:32:49;;;;;;;0.93;0.60;;;;;;;;;;4969396;28;20101;-58
2023/09/23 01:35:20;;;;;;;4.50;0.90;;;;;;;;;;4970946;28;20105;-57
2023/09/23 01:37:48;;;;;;;0.90;0.57;;;;;;;;;;4987670;28;20034;-58
2023/09/23 01:40:18;;;;;;;1.20;0.77;;;;;;;;;;4987680;28;20174;-58
2023/09/23 01:42:46;;;;;;;0.20;0.20;;;;;;;;;;4991362;28;20481;-58
2023/09/23 01:45:13;;;;;;;3.27;0.97;;;;;;;;;;4990374;28;20030;-58
2023/09/23 01:47:40;;;;;;;0.90;0.77;;;;;;;;;;4973355;28;20042;-58
2023/09/23 01:50:09;;;;;;;1.90;1.17;;;;;;;;;;4974207;28;20089;-58
2023/09/23 01:52:40;;;;;;;12.33;1.10;;;;;;;;;;4973317;28;20027;-57
2023/09/23 01:55:10;;;;;;;0.80;0.67;;;;;;;;;;4969067;28;20035;-57
2023/09/23 01:57:37;;;;;;;2.53;0.97;;;;;;;;;;4968201;28;20105;-58
2023/09/23 02:00:08;;;;;;;1.40;0.70;;;;;;;;;;4980553;28;20030;-57
2023/09/23 02:02:34;;;;;;;2.10;1.00;;;;;;;;;;4987213;28;20772;-57
2023/09/23 02:05:01;;;;;;;1.83;0.77;;;;;;;;;;4990997;28;20105;-58
2023/09/23 02:07:27;;;;;;;9.63;1.10;;;;;;;;;;4992718;28;20442;-57
2023/09/23 02:09:54;;;;;;;2.47;1.37;;;;;;;;;;4980856;28;20027;-58
2023/09/23 02:12:21;;;;;;;1.60;0.83;;;;;;;;;;4973249;28;20103;-57
2023/09/23 02:14:48;;;;;;;1.77;0.70;;;;;;;;;;4976584;28;20042;-58
2023/09/23 02:17:15;;;;;;;3.20;1.37;;;;;;;;;;4974194;28;20035;-58
2023/09/23 02:19:42;;;;;;;2.00;1.03;;;;;;;;;;4971843;28;20117;-58
2023/09/23 02:22:10;;;;;;;2.43;1.17;;;;;;;;;;4971574;28;20042;-59
2023/09/23 02:24:36;;;;;;;4.83;2.03;;;;;;;;;;4990316;28;20035;-58
2023/09/23 02:27:04;;;;;;;1.50;1.00;;;;;;;;;;4993940;28;20038;-57
2023/09/23 02:29:31;;;;;;;1.83;0.93;;;;;;;;;;4995240;28;20477;-58
2023/09/23 02:31:58;;;;;;;2.17;1.30;;;;;;;;;;4977006;28;20015;-58
2023/09/23 02:34:24;;;;;;;10.00;1.10;;;;;;;;;;4976863;28;20034;-57
2023/09/23 02:36:51;;;;;;;1.97;1.40;;;;;;;;;;4976575;28;20042;-57
2023/09/23 02:39:21;;;;;;;5.13;1.43;;;;;;;;;;4986756;28;20026;-57
2023/09/23 02:41:49;;;;;;;5.20;1.53;;;;;;;;;;4991057;28;20485;-58
2023/09/23 02:44:19;;;;;;;17.70;2.30;;;;;;;;;;4990772;28;20046;-58
2023/09/23 02:46:46;;;;;;;1.80;1.03;;;;;;;;;;4990822;28;20022;-58
2023/09/23 02:49:13;;;;;;;0.90;0.63;;;;;;;;;;4981132;28;20026;-58
2023/09/23 02:51:42;;;;;;;0.80;0.43;;;;;;;;;;4976327;28;20035;-57
2023/09/23 02:54:09;;;;;;;1.10;0.60;;;;;;;;;;4976416;28;20035;-58
2023/09/23 02:56:37;;;;;;;1.10;0.57;;;;;;;;;;4976371;28;20393;-57
2023/09/23 02:59:11;;;;;;;1.07;0.60;;;;;;;;;;4985645;28;20030;-57
2023/09/23 03:01:45;;;;;;;1.77;0.93;;;;;;;;;;4992307;28;20089;-57
2023/09/23 03:04:25;;;;;;;4.43;1.97;;;;;;;;;;4990525;28;20057;-57
2023/09/23 03:06:59;;;;;;;0.87;0.67;;;;;;;;;;4988804;28;20046;-57
2023/09/23 03:09:31;;;;;;;2.28;1.27;;;;;;;;;;4990586;28;20034;-58
2023/09/23 03:11:59;;;;;;;6.50;2.13;;;;;;;;;;4992592;28;20039;-57
2023/09/23 03:14:40;;;;;;;2.00;1.10;;;;;;;;;;4995353;28;20042;-58
2023/09/23 03:17:12;;;;;;;2.70;1.50;;;;;;;;;;4976486;28;20038;-58
2023/09/23 03:19:39;;;;;;;8.40;0.97;;;;;;;;;;4975827;28;20034;-58
2023/09/23 03:22:07;;;;;;;0.77;0.50;;;;;;;;;;4988082;28;20157;-59
2023/09/23 03:24:34;;;;;;;3.10;1.50;;;;;;;;;;4974726;28;20039;-58
2023/09/23 03:27:02;;;;;;;2.33;1.30;;;;;;;;;;4972531;28;20042;-58
2023/09/23 03:29:30;;;;;;;2.63;1.47;;;;;;;;;;4989864;28;20093;-57
2023/09/23 03:31:57;;;;;;;7.30;2.07;;;;;;;;;;4970351;28;20489;-58
2023/09/23 03:34:24;;;;;;;2.60;1.50;;;;;;;;;;4991018;28;20105;-58
2023/09/23 03:36:54;;;;;;;6.97;1.60;;;;;;;;;;4994468;28;20113;-59
2023/09/23 03:39:22;;;;;;;1.93;1.10;;;;;;;;;;4994413;28;20045;-57
2023/09/23 03:41:48;;;;;;;4.70;2.07;;;;;;;;;;4994138;28;20045;-59
2023/09/23 03:44:15;;;;;;;2.13;1.40;;;;;;;;;;4992532;28;20042;-58
2023/09/23 03:46:50;;;;;;;2.20;1.37;;;;;;;;;;4991948;28;20026;-58
2023/09/23 03:49:20;;;;;;;2.05;1.27;;;;;;;;;;4988542;28;20038;-58
2023/09/23 03:51:47;;;;;;;1.60;0.87;;;;;;;;;;4988960;28;20537;-58
2023/09/23 03:54:15;;;;;;;2.43;0.90;;;;;;;;;;4989054;28;20027;-58
2023/09/23 03:56:41;;;;;;;0.87;0.67;;;;;;;;;;4974974;28;20397;-59
2023/09/23 03:59:08;;;;;;;1.57;0.73;;;;;;;;;;4974411;28;20038;-58
2023/09/23 04:01:36;;;;;;;1.17;0.77;;;;;;;;;;4974506;28;20030;-58
2023/09/23 04:04:06;;;;;;;2.13;1.33;;;;;;;;;;4975351;28;20039;-57
2023/09/23 04:06:33;;;;;;;11.43;1.40;;;;;;;;;;4975023;28;20043;-58
2023/09/23 04:09:00;;;;;;;0.97;0.77;;;;;;;;;;4972649;28;20038;-58
2023/09/23 04:11:27;;;;;;;2.17;1.27;;;;;;;;;;4981670;28;20381;-58
2023/09/23 04:13:54;;;;;;;21.67;1.47;;;;;;;;;;4986932;28;20386;-58
2023/09/23 04:16:20;;;;;;;4.20;1.67;;;;;;;;;;4988696;28;20038;-59
2023/09/23 04:18:47;;;;;;;7.90;1.73;;;;;;;;;;4989155;28;20050;-58
2023/09/23 04:21:14;;;;;;;11.20;1.87;;;;;;;;;;4993797;28;20484;-58
2023/09/23 04:23:40;;;;;;;2.90;1.50;;;;;;;;;;4980844;28;20104;-59
2023/09/23 04:26:08;;;;;;;4.43;1.13;;;;;;;;;;4984181;28;20104;-58
2023/09/23 04:28:35;;;;;;;2.70;1.10;;;;;;;;;;4993195;28;20026;-58
2023/09/23 04:31:02;;;;;;;10.87;1.03;;;;;;;;;;4992789;28;20076;-58
2023/09/23 04:33:29;;;;;;;2.53;1.37;;;;;;;;;;4988181;28;20035;-58
2023/09/23 04:35:59;;;;;;;5.30;1.93;;;;;;;;;;4979831;28;20034;-58
2023/09/23 04:38:26;;;;;;;7.60;2.07;;;;;;;;;;4968804;28;20131;-58
2023/09/23 04:40:53;;;;;;;2.10;1.27;;;;;;;;;;4968803;28;20026;-59
2023/09/23 04:43:25;;;;;;;4.13;1.40;;;;;;;;;;4973267;28;20049;-59
2023/09/23 04:45:52;;;;;;;1.50;1.00;;;;;;;;;;4979914;28;20053;-59
2023/09/23 04:48:20;;;;;;;0.93;0.70;;;;;;;;;;4993132;28;20033;-58
2023/09/23 04:50:47;;;;;;;1.60;0.93;;;;;;;;;;4992788;28;20034;-58
2023/09/23 04:53:14;;;;;;;8.27;1.80;;;;;;;;;;4993007;28;20022;-58
2023/09/23 04:55:41;;;;;;;3.37;1.90;;;;;;;;;;4987745;28;20034;-58
2023/09/23 04:58:08;;;;;;;4.20;2.10;;;;;;;;;;4977070;28;20031;-59
2023/09/23 05:00:36;;;;;;;2.47;1.37;;;;;;;;;;4967789;28;20041;-59
2023/09/23 05:03:03;;;;;;;2.80;1.83;;;;;;;;;;4968088;28;20077;-59
2023/09/23 05:05:29;;;;;;;0.87;0.67;;;;;;;;;;4972684;28;20019;-59
2023/09/23 05:07:56;;;;;;;1.17;0.87;;;;;;;;;;4973348;28;20476;-60
2023/09/23 05:10:23;;;;;;;2.27;1.33;;;;;;;;;;4986491;28;20026;-59
2023/09/23 05:12:56;;;;;;;3.80;2.30;;;;;;;;;;4988994;28;20019;-59
2023/09/23 05:15:26;;;;;;;2.87;1.57;;;;;;;;;;4992869;28;20081;-58
2023/09/23 05:17:54;;;;;;;2.63;1.50;;;;;;;;;;4988465;28;20037;-58
2023/09/23 05:20:25;;;;;;;11.83;1.97;;;;;;;;;;4987866;28;20045;-58
2023/09/23 05:22:52;;;;;;;3.07;1.40;;;;;;;;;;4987248;28;20722;-58
2023/09/23 05:25:20;;;;;;;1.20;0.90;;;;;;;;;;4987984;28;20385;-58
2023/09/23 05:27:46;;;;;;;1.57;0.83;;;;;;;;;;4991810;28;20030;-59
2023/09/23 05:30:14;;;;;;;2.30;1.27;;;;;;;;;;4993213;28;20102;-58
2023/09/23 05:32:43;;;;;;;0.97;0.87;;;;;;;;;;4976371;28;20042;-58
2023/09/23 05:35:10;;;;;;;1.90;0.70;;;;;;;;;;4973281;28;20041;-58
2023/09/23 05:37:40;;;;;;;0.70;0.70;;;;;;;;;;4973061;28;20573;-58
2023/09/23 05:40:22;;;;;;;0.67;0.50;;;;;;;;;;4969316;28;20015;-59
2023/09/23 05:42:52;;;;;;;2.70;1.53;;;;;;;;;;4967838;28;20062;-59
2023/09/23 05:45:24;;;;;;;1.63;0.97;;;;;;;;;;4968121;28;20390;-59
2023/09/23 05:47:52;;;;;;;0.93;0.80;;;;;;;;;;4967201;28;20045;-58
2023/09/23 05:50:19;;;;;;;2.10;1.30;;;;;;;;;;4972038;28;20063;-58
2023/09/23 05:52:46;;;;;;;2.23;1.37;;;;;;;;;;4973225;28;20093;-58
2023/09/23 05:55:13;;;;;;;1.60;1.13;;;;;;;;;;4974320;28;20355;-58
2023/09/23 05:57:40;;;;;;;2.43;1.30;;;;;;;;;;4989241;28;20034;-59
2023/09/23 06:00:11;;;;;;;1.67;1.03;;;;;;;;;;4992670;28;20034;-58
2023/09/23 06:02:39;;;;;;;1.40;0.90;;;;;;;;;;4988241;28;20097;-59
2023/09/23 06:05:06;;;;;;;2.70;1.80;;;;;;;;;;4987195;28;20142;-58
2023/09/23 06:07:32;;;;;;;4.37;1.77;;;;;;;;;;4977465;28;20027;-58
2023/09/23 06:09:59;;;;;;;1.40;1.03;;;;;;;;;;4967899;28;20039;-58
2023/09/23 06:12:30;;;;;;;2.73;1.50;;;;;;;;;;4971217;28;20065;-58
2023/09/23 06:14:59;;;;;;;6.53;1.53;;;;;;;;;;4973111;28;20062;-58
2023/09/23 06:17:27;;;;;;;2.43;1.50;;;;;;;;;;4973145;28;20382;-59
2023/09/23 06:19:54;;;;;;;0.73;0.70;;;;;;;;;;4983079;28;20034;-58
2023/09/23 06:22:21;;;;;;;1.60;1.17;;;;;;;;;;4992116;28;20084;-58
2023/09/23 06:24:51;;;;;;;1.73;0.73;;;;;;;;;;4985016;28;20052;-58
2023/09/23 06:27:18;;;;;;;0.87;0.60;;;;;;;;;;4967722;28;20081;-58
2023/09/23 06:29:45;;;;;;;1.80;0.90;;;;;;;;;;4968019;28;20069;-58
2023/09/23 06:32:11;;;;;;;1.10;0.80;;;;;;;;;;4967816;28;20046;-58
2023/09/23 06:34:38;;;;;;;2.07;1.30;;;;;;;;;;4970271;28;20375;-59
2023/09/23 06:37:05;;;;;;;1.37;0.90;;;;;;;;;;4991425;28;20073;-58
2023/09/23 06:39:31;;;;;;;1.00;0.80;;;;;;;;;;4991728;28;20113;-58
2023/09/23 06:41:58;;;;;;;2.17;0.80;;;;;;;;;;4992522;28;20062;-58
2023/09/23 06:44:25;;;;;;;1.03;0.57;;;;;;;;;;4992174;28;20042;-58
2023/09/23 06:46:52;;;;;;;0.97;0.67;;;;;;;;;;4989771;28;20108;-58
2023/09/23 06:49:18;;;;;;;0.67;0.60;;;;;;;;;;4969126;28;20082;-59
2023/09/23 06:51:45;;;;;;;2.00;1.23;;;;;;;;;;4967388;28;20061;-59
2023/09/23 06:54:12;;;;;;;0.50;0.50;;;;;;;;;;4967653;28;20101;-59
2023/09/23 06:56:38;;;;;;;0.77;0.60;;;;;;;;;;4969190;28;20137;-58
2023/09/23 06:59:05;;;;;;;4.03;1.00;;;;;;;;;;4972347;28;20046;-58
2023/09/23 07:01:33;;;;;;;0.40;0.40;;;;;;;;;;4992238;28;20031;-58
2023/09/23 07:03:59;;;;;;;0.80;0.60;;;;;;;;;;4995439;28;20076;-58
2023/09/23 07:06:26;;;;;;;1.20;0.73;;;;;;;;;;4976335;28;20538;-58
2023/09/23 07:08:53;;;;;;;5.37;0.90;;;;;;;;;;4974731;28;20026;-58
2023/09/23 07:11:20;;;;;;;1.20;0.70;;;;;;;;;;4970716;28;20397;-59
2023/09/23 07:13:47;;;;;;;0.77;0.57;;;;;;;;;;4986930;28;20042;-59
2023/09/23 07:16:14;;;;;;;0.50;0.50;;;;;;;;;;4989713;28;20077;-59
2023/09/23 07:18:41;;;;;;;0.63;0.37;;;;;;;;;;4990694;28;20481;-58
2023/09/23 07:21:08;;;;;;;1.00;0.70;;;;;;;;;;4995355;28;20030;-58
2023/09/23 07:23:34;;;;;;;0.93;0.70;;;;;;;;;;4995312;28;20042;-58
2023/09/23 07:26:02;;;;;;;1.17;0.87;;;;;;;;;;4977750;28;20033;-58
2023/09/23 07:28:29;;;;;;;1.07;0.83;;;;;;;;;;4975922;28;20109;-58
2023/09/23 07:30:56;;;;;;;0.90;0.63;;;;;;;;;;4975386;28;20026;-58
2023/09/23 07:33:23;;;;;;;2.70;1.00;;;;;;;;;;4970211;28;20033;-59
2023/09/23 07:35:50;;;;;;;0.63;0.57;;;;;;;;;;4970105;28;20042;-58
2023/09/23 07:38:16;;;;;;;0.70;0.60;;;;;;;;;;4986854;28;20031;-58
2023/09/23 07:40:43;;;;;;;0.83;0.67;;;;;;;;;;4989745;28;20058;-58
2023/09/23 07:43:10;;;;;;;1.20;0.60;;;;;;;;;;4994460;28;20126;-58
2023/09/23 07:45:36;;;;;;;1.90;0.90;;;;;;;;;;4986180;28;20051;-58
2023/09/23 07:48:03;;;;;;;1.17;0.60;;;;;;;;;;4975520;28;20035;-58
2023/09/23 07:50:30;;;;;;;0.97;0.80;;;;;;;;;;4975317;28;20027;-58
2023/09/23 07:52:57;;;;;;;0.53;0.50;;;;;;;;;;4975381;28;20030;-58
2023/09/23 07:55:24;;;;;;;0.40;0.40;;;;;;;;;;4976806;28;20033;-58
2023/09/23 07:57:50;;;;;;;1.03;0.53;;;;;;;;;;4989611;28;20026;-58
2023/09/23 08:00:19;;;;;;;9.33;0.70;;;;;;;;;;4989574;28;20511;-59
2023/09/23 08:02:45;;;;;;;2.20;1.10;;;;;;;;;;4989195;28;20045;-59
2023/09/23 08:05:12;;;;;;;1.77;1.03;;;;;;;;;;4993236;28;20022;-58
2023/09/23 08:07:38;;;;;;;0.87;0.80;;;;;;;;;;4987123;28;20104;-58
2023/09/23 08:10:05;;;;;;;1.40;0.50;;;;;;;;;;4975171;28;20031;-58
2023/09/23 08:12:35;;;;;;;1.57;0.70;;;;;;;;;;4974444;28;20351;-58
2023/09/23 08:15:01;;;;;;;1.03;0.87;;;;;;;;;;4974852;28;20081;-58
2023/09/23 08:17:28;;;;;;;0.93;0.70;;;;;;;;;;4971154;28;20038;-58
2023/09/23 08:19:55;;;;;;;1.20;0.77;;;;;;;;;;4977736;28;20367;-58
2023/09/23 08:22:22;;;;;;;1.47;0.80;;;;;;;;;;4988891;28;20070;-59
2023/09/23 08:24:48;;;;;;;1.47;1.00;;;;;;;;;;4988963;28;20040;-58
2023/09/23 08:27:15;;;;;;;1.23;0.93;;;;;;;;;;4991759;28;20085;-59
2023/09/23 08:29:41;;;;;;;0.77;0.63;;;;;;;;;;4994157;28;20026;-58
2023/09/23 08:32:08;;;;;;;1.30;0.80;;;;;;;;;;4985617;28;20520;-58
2023/09/23 08:34:35;;;;;;;2.83;1.03;;;;;;;;;;4974795;28;20018;-58
2023/09/23 08:37:01;;;;;;;1.03;0.77;;;;;;;;;;4974684;28;20054;-58
2023/09/23 08:39:28;;;;;;;4.70;1.17;;;;;;;;;;4971832;28;20421;-58
2023/09/23 08:41:56;;;;;;;1.20;0.63;;;;;;;;;;4969052;28;20102;-58
2023/09/23 08:44:23;;;;;;;1.27;0.50;;;;;;;;;;4978313;28;20042;-58
2023/09/23 08:46:51;;;;;;;3.67;1.00;;;;;;;;;;4988692;28;20065;-58
2023/09/23 08:49:21;;;;;;;0.73;0.63;;;;;;;;;;4989995;28;20539;-58
2023/09/23 08:51:47;;;;;;;2.80;0.90;;;;;;;;;;4993851;28;20041;-58
2023/09/23 08:54:14;;;;;;;0.80;0.70;;;;;;;;;;4993645;28;20029;-58
2023/09/23 08:56:41;;;;;;;1.63;0.90;;;;;;;;;;4979682;28;20065;-58
2023/09/23 08:59:11;;;;;;;1.77;1.20;;;;;;;;;;4974079;28;20111;-58
2023/09/23 09:01:44;;;;;;;1.43;0.97;;;;;;;;;;4971895;28;20054;-58
2023/09/23 09:04:15;;;;;;;1.13;0.80;;;;;;;;;;4968649;28;20047;-58
2023/09/23 09:07:01;;;;;;;1.80;1.00;;;;;;;;;;4968616;28;20039;-58
2023/09/23 09:09:28;;;;;;;0.93;0.63;;;;;;;;;;4968894;28;20041;-58
2023/09/23 09:11:55;;;;;;;1.30;1.03;;;;;;;;;;4971084;28;20023;-58
2023/09/23 09:14:22;;;;;;;3.67;1.00;;;;;;;;;;4973928;28;20054;-58
2023/09/23 09:16:49;;;;;;;0.60;0.60;;;;;;;;;;4973627;28;20494;-58
2023/09/23 09:19:16;;;;;;;1.43;0.87;;;;;;;;;;4973709;28;20035;-59
2023/09/23 09:21:42;;;;;;;6.50;1.33;;;;;;;;;;4992741;28;20508;-58
2023/09/23 09:24:09;;;;;;;0.93;0.70;;;;;;;;;;4990104;28;20037;-58
2023/09/23 09:26:37;;;;;;;2.67;1.23;;;;;;;;;;4987783;28;20105;-58
2023/09/23 09:29:04;;;;;;;0.87;0.80;;;;;;;;;;4987812;28;20485;-58
2023/09/23 09:31:34;;;;;;;2.07;1.13;;;;;;;;;;4987807;28;20355;-58
2023/09/23 09:34:04;;;;;;;0.93;0.77;;;;;;;;;;4969415;28;20478;-58
2023/09/23 09:36:34;;;;;;;3.00;1.03;;;;;;;;;;4973531;28;20471;-58
2023/09/23 09:39:03;;;;;;;1.03;0.70;;;;;;;;;;4973484;28;20034;-58
2023/09/23 09:41:31;;;;;;;0.50;0.40;;;;;;;;;;4973589;28;20031;-58
2023/09/23 09:44:00;;;;;;;1.50;0.83;;;;;;;;;;4976967;28;20045;-58
2023/09/23 09:46:28;;;;;;;1.53;0.83;;;;;;;;;;4990594;28;20070;-58
2023/09/23 09:48:55;;;;;;;0.70;0.70;;;;;;;;;;4986233;28;20045;-58
2023/09/23 09:51:23;;;;;;;1.80;0.80;;;;;;;;;;4987279;28;20065;-59
2023/09/23 09:53:50;;;;;;;0.93;0.73;;;;;;;;;;4987601;28;20035;-59
2023/09/23 09:56:19;;;;;;;0.87;0.50;;;;;;;;;;4982567;28;20031;-58
2023/09/23 09:58:48;;;;;;;1.70;0.83;;;;;;;;;;4973277;28;20478;-58
2023/09/23 10:01:17;;;;;;;0.70;0.50;;;;;;;;;;4973189;28;20034;-58
2023/09/23 10:03:45;;;;;;;0.53;0.53;;;;;;;;;;4973192;28;20039;-58
2023/09/23 10:06:18;;;;;;;1.33;0.80;;;;;;;;;;4972544;28;20041;-58
2023/09/23 10:08:48;;;;;;;0.70;0.60;;;;;;;;;;4978435;28;20033;-58
2023/09/23 10:11:15;;;;;;;0.87;0.70;;;;;;;;;;4987177;28;20033;-58
2023/09/23 10:13:42;;;;;;;1.03;0.73;;;;;;;;;;4987328;28;20105;-58
2023/09/23 10:16:19;;;;;;;0.70;0.60;;;;;;;;;;4987504;28;20034;-58
2023/09/23 10:18:54;;;;;;;0.93;0.53;;;;;;;;;;4987808;28;20022;-58
2023/09/23 10:21:27;;;;;;;1.37;0.97;;;;;;;;;;4983459;28;20188;-58
2023/09/23 10:24:02;;;;;;;1.07;0.90;;;;;;;;;;4992145;28;20030;-59
2023/09/23 10:26:29;;;;;;;0.85;0.75;;;;;;;;;;4992640;28;20026;-58
2023/09/23 10:28:59;;;;;;;1.70;0.77;;;;;;;;;;4992569;28;20101;-57
2023/09/23 10:31:27;;;;;;;1.60;0.83;;;;;;;;;;4986935;28;20022;-58
2023/09/23 10:33:54;;;;;;;0.97;0.57;;;;;;;;;;4968127;28;20042;-58
2023/09/23 10:36:21;;;;;;;2.97;0.87;;;;;;;;;;4972793;28;20385;-58
2023/09/23 10:38:48;;;;;;;1.00;0.77;;;;;;;;;;4980288;28;20050;-59
2023/09/23 10:41:15;;;;;;;0.60;0.50;;;;;;;;;;4972261;28;20482;-58
2023/09/23 10:43:41;;;;;;;0.50;0.40;;;;;;;;;;4976697;28;20114;-58
2023/09/23 10:46:09;;;;;;;1.00;0.70;;;;;;;;;;4976596;28;20030;-58
2023/09/23 10:48:36;;;;;;;1.17;0.90;;;;;;;;;;4995544;28;20033;-58
2023/09/23 10:51:05;;;;;;;1.13;0.80;;;;;;;;;;4995986;28;20084;-57
2023/09/23 10:53:32;;;;;;;1.23;0.93;;;;;;;;;;4994631;28;20034;-58
2023/09/23 10:56:01;;;;;;;2.83;0.90;;;;;;;;;;4990515;28;20038;-58
2023/09/23 10:58:31;;;;;;;0.50;0.50;;;;;;;;;;4985399;28;20049;-58
2023/09/23 11:00:58;;;;;;;1.73;1.20;;;;;;;;;;4971218;28;20051;-58
2023/09/23 11:03:25;;;;;;;2.90;1.03;;;;;;;;;;4971320;28;20062;-58
2023/09/23 11:05:52;;;;;;;1.33;0.87;;;;;;;;;;4975866;28;20054;-58
2023/09/23 11:08:18;;;;;;;8.20;1.43;;;;;;;;;;4976182;28;20023;-58
2023/09/23 11:10:46;;;;;;;2.13;1.20;;;;;;;;;;4982258;28;20023;-58
2023/09/23 11:13:14;;;;;;;1.50;1.10;;;;;;;;;;4995659;28;20368;-58
2023/09/23 11:15:43;;;;;;;0.90;0.77;;;;;;;;;;4994835;28;20098;-58
2023/09/23 11:18:10;;;;;;;2.23;1.47;;;;;;;;;;4990374;28;20109;-58
2023/09/23 11:20:40;;;;;;;0.67;0.50;;;;;;;;;;4990098;28;20022;-58
2023/09/23 11:23:10;;;;;;;1.33;0.70;;;;;;;;;;4978355;28;20486;-58
2023/09/23 11:25:38;;;;;;;0.73;0.57;;;;;;;;;;4970636;28;20034;-58
2023/09/23 11:28:05;;;;;;;0.50;0.50;;;;;;;;;;4975786;28;20410;-57
2023/09/23 11:30:31;;;;;;;0.67;0.60;;;;;;;;;;4975868;28;20038;-58
2023/09/23 11:32:58;;;;;;;1.27;0.97;;;;;;;;;;4975692;28;20027;-58
2023/09/23 11:35:25;;;;;;;1.93;0.97;;;;;;;;;;4986879;28;20034;-58
2023/09/23 11:37:54;;;;;;;2.43;0.73;;;;;;;;;;4995176;28;20077;-57
2023/09/23 11:40:22;;;;;;;21.73;1.30;;;;;;;;;;4989616;28;20489;-58
2023/09/23 11:42:48;;;;;;;0.80;0.70;;;;;;;;;;4989580;28;20505;-57
2023/09/23 11:45:15;;;;;;;0.60;0.50;;;;;;;;;;4989499;28;20033;-58
2023/09/23 11:47:42;;;;;;;1.03;0.70;;;;;;;;;;4972993;28;20023;-58
2023/09/23 11:50:08;;;;;;;1.57;0.60;;;;;;;;;;4974437;28;20030;-57
2023/09/23 11:52:35;;;;;;;1.43;0.60;;;;;;;;;;4975416;28;20041;-59
2023/09/23 11:55:03;;;;;;;0.90;0.60;;;;;;;;;;4975572;28;20030;-57
2023/09/23 11:57:29;;;;;;;1.17;0.70;;;;;;;;;;4975053;28;20101;-58
2023/09/23 11:59:56;;;;;;;3.77;0.93;;;;;;;;;;4994115;28;20355;-58
2023/09/23 12:02:23;;;;;;;0.60;0.40;;;;;;;;;;4990126;28;20109;-57
2023/09/23 12:04:50;;;;;;;1.37;0.83;;;;;;;;;;4989375;28;20092;-58
2023/09/23 12:07:21;;;;;;;1.10;0.80;;;;;;;;;;4989172;28;20026;-58
2023/09/23 12:09:48;;;;;;;2.53;0.93;;;;;;;;;;4988944;28;20030;-58
2023/09/23 12:12:15;;;;;;;0.83;0.60;;;;;;;;;;4973586;28;20026;-57
2023/09/23 12:14:45;;;;;;;0.90;0.53;;;;;;;;;;4974733;28;20386;-58
2023/09/23 12:17:15;;;;;;;0.40;0.40;;;;;;;;;;4975215;28;20170;-58
2023/09/23 12:19:44;;;;;;;2.00;0.70;;;;;;;;;;4974927;28;20406;-58
2023/09/23 12:22:12;;;;;;;2.57;1.13;;;;;;;;;;4975050;28;20030;-58
2023/09/23 12:24:46;;;;;;;4.90;2.27;;;;;;;;;;4982895;28;20081;-58
2023/09/23 12:27:13;;;;;;;5.23;2.00;;;;;;;;;;4988754;28;20022;-58
2023/09/23 12:29:39;;;;;;;2.20;1.27;;;;;;;;;;4988906;28;20034;-59
2023/09/23 12:32:06;;;;;;;1.20;0.90;;;;;;;;;;4988871;28;20126;-58
2023/09/23 12:34:33;;;;;;;1.10;0.97;;;;;;;;;;4981022;28;20035;-58
2023/09/23 12:37:00;;;;;;;2.57;1.17;;;;;;;;;;4974528;28;20050;-58
2023/09/23 12:39:27;;;;;;;1.50;1.20;;;;;;;;;;4974645;28;20061;-58
2023/09/23 12:41:54;;;;;;;1.87;1.30;;;;;;;;;;4974283;28;20035;-58
2023/09/23 12:44:21;;;;;;;4.20;1.50;;;;;;;;;;4974203;28;20450;-58
2023/09/23 12:46:47;;;;;;;1.93;1.33;;;;;;;;;;4980920;28;20026;-58
2023/09/23 12:49:14;;;;;;;0.63;0.63;;;;;;;;;;4988658;28;20495;-58
2023/09/23 12:51:44;;;;;;;2.20;1.00;;;;;;;;;;4988343;28;20030;-58
2023/09/23 12:54:13;;;;;;;11.60;1.87;;;;;;;;;;4988556;28;20496;-58
2023/09/23 12:56:40;;;;;;;0.57;0.53;;;;;;;;;;4991296;28;20097;-58
2023/09/23 12:59:07;;;;;;;2.67;1.23;;;;;;;;;;4979577;28;20035;-57
2023/09/23 13:01:36;;;;;;;2.27;1.27;;;;;;;;;;4974128;28;20089;-58
2023/09/23 13:04:03;;;;;;;1.73;1.33;;;;;;;;;;4980037;28;20080;-59
2023/09/23 13:06:30;;;;;;;1.20;0.70;;;;;;;;;;4993508;28;20034;-57
2023/09/23 13:08:56;;;;;;;1.37;0.97;;;;;;;;;;4990701;28;20026;-58
2023/09/23 13:11:23;;;;;;;2.67;1.10;;;;;;;;;;4988041;28;20026;-58
2023/09/23 13:13:50;;;;;;;2.30;1.13;;;;;;;;;;4986152;28;20112;-58
2023/09/23 13:16:17;;;;;;;1.33;0.93;;;;;;;;;;4988033;28;20470;-58
2023/09/23 13:18:44;;;;;;;2.03;1.33;;;;;;;;;;4989796;28;20428;-58
2023/09/23 13:21:11;;;;;;;4.00;1.90;;;;;;;;;;4993013;28;20134;-58
2023/09/23 13:23:38;;;;;;;1.17;1.07;;;;;;;;;;4984083;28;20062;-58
2023/09/23 13:26:06;;;;;;;3.63;1.53;;;;;;;;;;4973638;28;20108;-58
2023/09/23 13:28:32;;;;;;;2.93;1.37;;;;;;;;;;4976119;28;20035;-58
2023/09/23 13:30:59;;;;;;;6.60;2.03;;;;;;;;;;4988443;28;20034;-58
2023/09/23 13:33:27;;;;;;;1.17;0.80;;;;;;;;;;4987654;28;20101;-58
2023/09/23 13:35:54;;;;;;;0.87;0.80;;;;;;;;;;4987672;28;20061;-59
2023/09/23 13:38:21;;;;;;;0.83;0.63;;;;;;;;;;4987671;28;20026;-59
2023/09/23 13:40:47;;;;;;;1.07;0.90;;;;;;;;;;4981276;28;20027;-58
2023/09/23 13:43:14;;;;;;;1.60;1.10;;;;;;;;;;4973372;28;20420;-58
2023/09/23 13:45:41;;;;;;;2.23;1.00;;;;;;;;;;4973426;28;20035;-58
2023/09/23 13:48:08;;;;;;;1.33;0.93;;;;;;;;;;4973407;28;20041;-58
2023/09/23 13:50:36;;;;;;;1.00;0.77;;;;;;;;;;4973236;28;20030;-58
2023/09/23 13:53:03;;;;;;;0.40;0.30;;;;;;;;;;4982345;28;20084;-58
2023/09/23 13:55:30;;;;;;;0.53;0.40;;;;;;;;;;4987312;28;20032;-58
2023/09/23 13:57:56;;;;;;;0.60;0.37;;;;;;;;;;4987430;28;20022;-58
2023/09/23 14:00:23;;;;;;;2.73;1.00;;;;;;;;;;4985754;28;20369;-58
2023/09/23 14:02:50;;;;;;;0.47;0.20;;;;;;;;;;4985591;28;20054;-57
2023/09/23 14:05:16;;;;;;;0.93;0.60;;;;;;;;;;4987884;28;20026;-58
2023/09/23 14:07:43;;;;;;;0.43;0.33;;;;;;;;;;4974004;28;20030;-58
2023/09/23 14:10:10;;;;;;;0.70;0.50;;;;;;;;;;4978014;28;20023;-58
2023/09/23 14:12:38;;;;;;;1.03;0.67;;;;;;;;;;4979274;28;20105;-58
2023/09/23 14:15:05;;;;;;;1.00;0.40;;;;;;;;;;4979373;28;20042;-57
2023/09/23 14:17:31;;;;;;;1.17;0.47;;;;;;;;;;4983341;28;20104;-58
2023/09/23 14:20:03;;;;;;;0.50;0.40;;;;;;;;;;4993872;28;20547;-58
2023/09/23 14:22:32;;;;;;;0.40;0.30;;;;;;;;;;4993535;28;20076;-58
2023/09/23 14:24:59;;;;;;;1.10;0.60;;;;;;;;;;4991894;28;20034;-58
2023/09/23 14:27:25;;;;;;;3.90;0.60;;;;;;;;;;4998520;28;20026;-58
2023/09/23 14:29:52;;;;;;;0.47;0.30;;;;;;;;;;4998850;28;20029;-58
2023/09/23 14:32:19;;;;;;;2.10;0.60;;;;;;;;;;4998962;28;20034;-58
2023/09/23 14:34:45;;;;;;;0.30;0.30;;;;;;;;;;4985487;28;20548;-58
2023/09/23 14:37:12;;;;;;;0.83;0.43;;;;;;;;;;4985608;28;20054;-58
2023/09/23 14:39:39;;;;;;;0.40;0.30;;;;;;;;;;4974157;28;20034;-58
2023/09/23 14:42:07;;;;;;;0.27;0.20;;;;;;;;;;4974120;28;21916;-58
2023/09/23 14:44:33;;;;;;;0.30;0.20;;;;;;;;;;4974050;28;20375;-58
2023/09/23 14:47:00;;;;;;;1.03;0.37;;;;;;;;;;4976931;28;20096;-58